createdAt,value
2018-09-29T00:01:54.792Z,2.53
2018-09-29T00:04:23.020Z,2.87
2018-09-29T00:06:51.259Z,2.63
2018-09-29T00:09:19.492Z,2.33
2018-09-29T00:11:47.702Z,2.37
2018-09-29T00:14:15.944Z,2.40
2018-09-29T00:16:44.135Z,2.30
2018-09-29T00:19:12.337Z,2.40
2018-09-29T00:21:40.552Z,2.33
2018-09-29T00:24:08.748Z,2.87
2018-09-29T00:26:36.959Z,2.57
2018-09-29T00:29:05.184Z,2.53
2018-09-29T00:31:33.408Z,2.37
2018-09-29T00:34:01.593Z,2.37
2018-09-29T00:36:29.804Z,2.53
2018-09-29T00:38:57.999Z,2.60
2018-09-29T00:41:26.232Z,2.63
2018-09-29T00:43:54.438Z,2.37
2018-09-29T00:46:22.655Z,3.00
2018-09-29T00:48:50.840Z,2.57
2018-09-29T00:51:19.046Z,2.67
2018-09-29T00:53:47.264Z,2.60
2018-09-29T00:56:15.479Z,2.70
2018-09-29T00:58:43.677Z,2.80
2018-09-29T01:01:11.879Z,2.47
2018-09-29T01:03:40.111Z,2.50
2018-09-29T01:06:08.314Z,2.43
2018-09-29T01:08:36.515Z,2.70
2018-09-29T01:11:04.732Z,2.97
2018-09-29T01:13:32.953Z,2.70
2018-09-29T01:16:01.183Z,2.77
2018-09-29T01:18:29.402Z,2.50
2018-09-29T01:20:57.601Z,2.53
2018-09-29T01:23:25.816Z,2.73
2018-09-29T01:25:54.064Z,2.60
2018-09-29T01:28:22.288Z,2.80
2018-09-29T01:30:50.535Z,2.60
2018-09-29T01:33:18.737Z,2.77
2018-09-29T01:35:47.004Z,2.40
2018-09-29T01:38:15.203Z,2.83
2018-09-29T01:40:43.407Z,2.60
2018-09-29T01:43:11.614Z,2.67
2018-09-29T01:45:39.852Z,2.50
2018-09-29T01:48:08.084Z,2.63
2018-09-29T01:50:36.323Z,2.60
2018-09-29T01:53:04.627Z,2.47
2018-09-29T01:55:32.874Z,2.70
2018-09-29T01:58:01.101Z,2.60
2018-09-29T02:00:29.360Z,2.17
2018-09-29T02:03:01.524Z,2.87
2018-09-29T02:05:29.773Z,2.67
2018-09-29T02:07:57.994Z,2.43
2018-09-29T02:10:26.205Z,2.40
2018-09-29T02:12:54.415Z,2.60
2018-09-29T02:15:22.620Z,2.60
2018-09-29T02:17:50.835Z,2.57
2018-09-29T02:20:19.045Z,2.40
2018-09-29T02:22:47.336Z,2.57
2018-09-29T02:25:15.565Z,2.80
2018-09-29T02:27:43.806Z,2.73
2018-09-29T02:30:12.032Z,2.57
2018-09-29T02:32:40.300Z,2.40
2018-09-29T02:35:08.517Z,2.93
2018-09-29T02:37:36.738Z,3.17
2018-09-29T02:40:04.961Z,2.37
2018-09-29T02:42:33.190Z,2.47
2018-09-29T02:45:01.404Z,2.57
2018-09-29T02:47:29.611Z,2.60
2018-09-29T02:49:57.803Z,2.47
2018-09-29T02:52:26.119Z,2.87
2018-09-29T02:54:54.317Z,3.13
2018-09-29T02:57:22.561Z,2.40
2018-09-29T02:59:50.770Z,3.00
2018-09-29T03:02:19.001Z,2.97
2018-09-29T03:04:47.213Z,2.33
2018-09-29T03:07:15.486Z,2.60
2018-09-29T03:09:43.631Z,2.33
2018-09-29T03:12:11.885Z,2.30
2018-09-29T03:14:40.082Z,2.30
2018-09-29T03:17:08.380Z,2.40
2018-09-29T03:19:36.619Z,2.50
2018-09-29T03:22:04.847Z,2.70
2018-09-29T03:24:33.071Z,2.93
2018-09-29T03:27:01.312Z,3.00
2018-09-29T03:29:29.541Z,3.10
2018-09-29T03:31:58.054Z,2.63
2018-09-29T03:34:26.053Z,2.30
2018-09-29T03:36:54.286Z,2.83
2018-09-29T03:39:22.492Z,2.20
2018-09-29T03:41:50.735Z,2.77
2018-09-29T03:44:18.987Z,2.57
2018-09-29T03:46:47.200Z,2.40
2018-09-29T03:49:15.443Z,2.57
2018-09-29T03:51:43.655Z,2.60
2018-09-29T03:54:11.884Z,2.60
2018-09-29T03:56:40.099Z,2.83
2018-09-29T03:59:08.342Z,2.77
2018-09-29T04:01:36.559Z,2.63
2018-09-29T04:04:04.789Z,2.97
2018-09-29T04:06:33.009Z,2.60
2018-09-29T04:09:01.376Z,2.20
2018-09-29T04:11:29.571Z,2.30
2018-09-29T04:13:57.936Z,3.10
2018-09-29T04:16:26.074Z,2.50
2018-09-29T04:18:54.313Z,2.33
2018-09-29T04:21:22.513Z,2.40
2018-09-29T04:23:50.785Z,2.40
2018-09-29T04:26:19.002Z,2.50
2018-09-29T04:28:47.258Z,2.50
2018-09-29T04:31:15.467Z,2.40
2018-09-29T04:33:44.090Z,2.63
2018-09-29T04:36:12.299Z,2.57
2018-09-29T04:38:40.535Z,2.80
2018-09-29T04:41:08.736Z,2.90
2018-09-29T04:43:36.968Z,2.80
2018-09-29T04:46:05.190Z,3.50
2018-09-29T04:48:33.439Z,2.97
2018-09-29T04:51:01.671Z,2.83
2018-09-29T04:53:29.900Z,3.10
2018-09-29T04:55:58.095Z,2.80
2018-09-29T04:58:26.353Z,2.70
2018-09-29T05:00:54.555Z,3.23
2018-09-29T05:03:22.764Z,3.20
2018-09-29T05:05:50.943Z,2.70
2018-09-29T05:08:19.485Z,3.07
2018-09-29T05:10:47.692Z,3.03
2018-09-29T05:13:15.905Z,3.10
2018-09-29T05:15:44.133Z,3.53
2018-09-29T05:18:12.398Z,3.07
2018-09-29T05:20:40.587Z,3.10
2018-09-29T05:23:08.820Z,2.73
2018-09-29T05:25:37.502Z,2.93
2018-09-29T05:28:05.784Z,2.77
2018-09-29T05:30:33.999Z,3.23
2018-09-29T05:33:02.207Z,3.13
2018-09-29T05:35:30.411Z,3.00
2018-09-29T05:37:58.606Z,2.83
2018-09-29T05:40:26.821Z,2.57
2018-09-29T05:42:55.026Z,2.83
2018-09-29T05:45:23.238Z,2.57
2018-09-29T05:47:51.456Z,2.80
2018-09-29T05:50:19.668Z,3.10
2018-09-29T05:52:47.875Z,3.30
2018-09-29T05:55:16.079Z,2.97
2018-09-29T05:57:44.269Z,3.00
2018-09-29T06:00:12.513Z,3.00
2018-09-29T06:02:40.721Z,2.60
2018-09-29T06:05:08.954Z,3.13
2018-09-29T06:07:37.179Z,2.90
2018-09-29T06:10:05.491Z,2.83
2018-09-29T06:12:33.732Z,3.53
2018-09-29T06:15:01.976Z,3.27
2018-09-29T06:17:30.176Z,3.37
2018-09-29T06:19:58.400Z,3.20
2018-09-29T06:22:26.599Z,3.23
2018-09-29T06:24:54.818Z,3.67
2018-09-29T06:27:23.017Z,3.30
2018-09-29T06:29:51.632Z,3.17
2018-09-29T06:32:19.841Z,3.10
2018-09-29T06:34:48.071Z,3.13
2018-09-29T06:37:16.293Z,3.20
2018-09-29T06:39:44.514Z,2.97
2018-09-29T06:42:12.704Z,3.07
2018-09-29T06:44:40.914Z,3.27
2018-09-29T06:47:09.176Z,3.53
2018-09-29T06:49:38.246Z,2.97
2018-09-29T06:52:06.453Z,3.10
2018-09-29T06:54:34.714Z,3.13
2018-09-29T06:57:02.894Z,3.20
2018-09-29T06:59:31.477Z,3.40
2018-09-29T07:01:59.732Z,2.90
2018-09-29T07:04:27.952Z,3.10
2018-09-29T07:06:56.163Z,3.20
2018-09-29T07:09:24.352Z,3.53
2018-09-29T07:11:52.564Z,3.77
2018-09-29T07:14:20.760Z,3.70
2018-09-29T07:16:48.995Z,3.40
2018-09-29T07:19:17.205Z,3.27
2018-09-29T07:21:45.534Z,2.90
2018-09-29T07:24:13.914Z,2.83
2018-09-29T07:26:42.141Z,2.50
2018-09-29T07:29:10.795Z,2.30
2018-09-29T07:31:39.359Z,2.30
2018-09-29T07:34:07.632Z,2.60
2018-09-29T07:36:35.856Z,2.67
2018-09-29T07:39:05.611Z,2.73
2018-09-29T07:41:33.844Z,2.93
2018-09-29T07:44:02.793Z,2.70
2018-09-29T07:46:31.022Z,2.70
2018-09-29T07:48:59.237Z,3.03
2018-09-29T07:51:27.696Z,2.93
2018-09-29T07:53:55.925Z,2.93
2018-09-29T07:56:24.197Z,2.53
2018-09-29T07:58:52.441Z,3.00
2018-09-29T08:01:20.659Z,2.63
2018-09-29T08:03:48.877Z,2.73
2018-09-29T08:06:17.582Z,3.00
2018-09-29T08:08:45.851Z,2.90
2018-09-29T08:11:14.072Z,2.87
2018-09-29T08:13:42.355Z,3.13
2018-09-29T08:16:10.696Z,2.80
2018-09-29T08:18:38.936Z,3.10
2018-09-29T08:21:07.180Z,3.10
2018-09-29T08:23:35.468Z,2.67
2018-09-29T08:26:03.724Z,2.53
2018-09-29T08:28:31.963Z,2.80
2018-09-29T08:31:00.429Z,2.80
2018-09-29T08:33:28.633Z,2.50
2018-09-29T08:35:56.903Z,2.00
2018-09-29T08:38:25.111Z,2.70
2018-09-29T08:40:53.333Z,2.43
2018-09-29T08:43:21.543Z,2.60
2018-09-29T08:45:49.773Z,2.60
2018-09-29T08:48:17.971Z,2.30
2018-09-29T08:50:46.231Z,2.60
2018-09-29T08:53:14.599Z,2.80
2018-09-29T08:55:43.198Z,2.27
2018-09-29T08:58:11.531Z,2.20
2018-09-29T09:00:40.013Z,2.63
2018-09-29T09:03:08.317Z,1.80
2018-09-29T09:05:36.536Z,2.13
2018-09-29T09:08:04.766Z,2.20
2018-09-29T09:10:32.979Z,1.73
2018-09-29T09:13:01.208Z,2.20
2018-09-29T09:15:29.452Z,2.10
2018-09-29T09:17:57.727Z,1.80
2018-09-29T09:20:25.931Z,2.20
2018-09-29T09:22:54.380Z,1.70
2018-09-29T09:25:22.567Z,1.90
2018-09-29T09:27:50.822Z,1.97
2018-09-29T09:30:19.136Z,1.80
2018-09-29T09:32:47.321Z,1.70
2018-09-29T09:35:15.553Z,2.07
2018-09-29T09:37:43.808Z,2.00
2018-09-29T09:40:12.105Z,1.80
2018-09-29T09:42:40.321Z,1.93
2018-09-29T09:45:08.595Z,1.80
2018-09-29T09:47:36.788Z,2.17
2018-09-29T09:50:05.000Z,2.20
2018-09-29T09:52:33.245Z,1.93
2018-09-29T09:55:01.932Z,1.67
2018-09-29T09:57:30.148Z,2.07
2018-09-29T09:59:58.378Z,1.50
2018-09-29T10:02:31.961Z,1.83
2018-09-29T10:05:00.176Z,1.83
2018-09-29T10:07:28.418Z,1.50
2018-09-29T10:09:56.619Z,1.60
2018-09-29T10:12:24.998Z,1.83
2018-09-29T10:14:53.183Z,1.63
2018-09-29T10:17:21.462Z,1.43
2018-09-29T10:19:49.892Z,1.90
2018-09-29T10:22:18.135Z,1.43
2018-09-29T10:24:46.341Z,1.30
2018-09-29T10:27:14.584Z,1.63
2018-09-29T10:29:42.860Z,1.70
2018-09-29T10:32:11.103Z,1.50
2018-09-29T10:34:39.321Z,1.47
2018-09-29T10:37:07.531Z,1.20
2018-09-29T10:39:35.725Z,1.47
2018-09-29T10:42:03.997Z,1.90
2018-09-29T10:44:32.235Z,1.80
2018-09-29T10:47:00.443Z,1.33
2018-09-29T10:49:28.672Z,1.40
2018-09-29T10:51:56.893Z,1.10
2018-09-29T10:54:25.111Z,1.30
2018-09-29T10:56:53.373Z,1.40
2018-09-29T10:59:21.603Z,1.20
2018-09-29T11:01:49.810Z,1.40
2018-09-29T11:04:18.035Z,1.53
2018-09-29T11:06:46.628Z,1.40
2018-09-29T11:09:14.852Z,1.30
2018-09-29T11:11:43.126Z,1.37
2018-09-29T11:14:11.405Z,1.30
2018-09-29T11:16:39.610Z,1.40
2018-09-29T11:19:07.828Z,1.37
2018-09-29T11:21:36.045Z,1.60
2018-09-29T11:24:04.284Z,1.40
2018-09-29T11:26:32.479Z,1.50
2018-09-29T11:29:00.776Z,1.40
2018-09-29T11:31:29.513Z,1.33
2018-09-29T11:33:57.761Z,1.20
2018-09-29T11:36:25.971Z,1.03
2018-09-29T11:38:54.203Z,1.47
2018-09-29T11:41:22.441Z,1.60
2018-09-29T11:43:50.671Z,1.20
2018-09-29T11:46:18.879Z,1.23
2018-09-29T11:48:47.095Z,1.27
2018-09-29T11:51:15.304Z,1.40
2018-09-29T11:53:43.528Z,1.57
2018-09-29T11:56:11.757Z,1.57
2018-09-29T11:58:40.012Z,1.17
2018-09-29T12:01:08.241Z,1.60
2018-09-29T12:03:36.457Z,1.40
2018-09-29T12:06:04.774Z,1.60
2018-09-29T12:08:32.948Z,1.23
2018-09-29T12:11:01.168Z,1.33
2018-09-29T12:13:29.384Z,1.50
2018-09-29T12:15:57.584Z,1.37
2018-09-29T12:18:25.820Z,1.00
2018-09-29T12:20:54.026Z,1.20
2018-09-29T12:23:22.242Z,1.27
2018-09-29T12:25:50.452Z,1.33
2018-09-29T12:28:18.679Z,1.43
2018-09-29T12:30:46.973Z,1.50
2018-09-29T12:33:15.183Z,1.30
2018-09-29T12:35:43.428Z,1.13
2018-09-29T12:38:11.668Z,1.20
2018-09-29T12:40:39.908Z,1.40
2018-09-29T12:43:08.116Z,1.40
2018-09-29T12:45:36.343Z,1.33
2018-09-29T12:48:04.592Z,1.20
2018-09-29T12:50:32.839Z,1.20
2018-09-29T12:53:01.062Z,1.40
2018-09-29T12:55:29.318Z,1.33
2018-09-29T12:57:57.585Z,1.20
2018-09-29T13:00:25.917Z,1.37
2018-09-29T13:02:54.116Z,1.30
2018-09-29T13:05:22.491Z,1.50
2018-09-29T13:07:50.700Z,1.40
2018-09-29T13:10:19.243Z,1.30
2018-09-29T13:12:47.441Z,1.47
2018-09-29T14:49:42.471Z,1.30
2018-09-29T14:52:10.775Z,1.13
2018-09-29T14:54:38.948Z,1.17
2018-09-29T14:57:07.170Z,1.30
2018-09-29T14:59:35.433Z,1.50
2018-09-29T15:02:03.669Z,1.30
2018-09-29T15:04:32.693Z,1.30
2018-09-29T15:07:00.928Z,1.23
2018-09-29T15:09:29.140Z,1.00
2018-09-29T15:11:57.390Z,1.47
2018-09-29T15:14:25.613Z,1.00
2018-09-29T15:16:53.839Z,0.90
2018-09-29T15:19:22.059Z,1.20
2018-09-29T15:21:50.352Z,1.10
2018-09-29T15:24:18.558Z,1.30
2018-09-29T15:26:46.796Z,1.10
2018-09-29T15:29:15.052Z,1.10
2018-09-29T15:31:43.299Z,1.50
2018-09-29T15:34:11.493Z,1.20
2018-09-29T15:36:39.828Z,1.63
2018-09-29T15:39:09.493Z,1.30
2018-09-29T15:41:37.714Z,1.33
2018-09-29T15:44:05.997Z,1.10
2018-09-29T15:46:34.239Z,1.30
2018-09-29T15:49:02.793Z,1.60
2018-09-29T15:51:31.030Z,1.13
2018-09-29T15:53:59.235Z,1.50
2018-09-29T15:56:27.460Z,1.50
2018-09-29T15:58:55.656Z,1.87
2018-09-29T16:01:23.878Z,1.60
2018-09-29T16:03:52.106Z,1.47
2018-09-29T16:06:20.340Z,1.30
2018-09-29T16:08:48.553Z,1.43
2018-09-29T16:11:16.868Z,1.47
2018-09-29T16:13:45.069Z,1.50
2018-09-29T16:16:13.322Z,1.90
2018-09-29T16:18:41.520Z,1.70
2018-09-29T16:21:09.737Z,1.67
2018-09-29T16:23:37.969Z,1.70
2018-09-29T16:26:06.228Z,1.70
2018-09-29T16:28:34.467Z,2.00
2018-09-29T16:31:02.681Z,1.60
2018-09-29T16:33:30.912Z,1.53
2018-09-29T16:35:59.107Z,2.20
2018-09-29T16:38:27.333Z,1.80
2018-09-29T16:40:55.562Z,2.10
2018-09-29T16:43:23.780Z,2.47
2018-09-29T16:45:52.040Z,2.23
2018-09-29T16:48:20.269Z,2.70
2018-09-29T16:50:48.464Z,2.53
2018-09-29T16:53:16.689Z,3.00
2018-09-29T16:55:44.902Z,2.97
2018-09-29T16:58:13.121Z,2.70
2018-09-29T17:00:41.312Z,3.10
2018-09-29T17:03:09.542Z,3.80
2018-09-29T17:05:37.762Z,3.30
2018-09-29T17:08:06.029Z,4.37
2018-09-29T17:10:34.246Z,5.30
2018-09-29T17:13:02.463Z,5.47
2018-09-29T17:15:30.681Z,4.50
2018-09-29T17:17:58.911Z,5.03
2018-09-29T17:20:27.132Z,4.60
2018-09-29T17:22:55.339Z,4.83
2018-09-29T17:25:23.538Z,4.53
2018-09-29T17:27:51.757Z,4.67
2018-09-29T17:30:19.964Z,6.03
2018-09-29T17:32:48.185Z,6.23
2018-09-29T17:35:16.388Z,6.07
2018-09-29T17:37:44.617Z,7.53
2018-09-29T17:40:12.833Z,7.07
2018-09-29T17:42:41.068Z,6.27
2018-09-29T17:45:09.272Z,26.47
2018-09-29T17:47:37.499Z,12.37
2018-09-29T17:50:06.598Z,19.47
2018-09-29T17:52:34.889Z,17.13
2018-09-29T17:55:03.075Z,22.47
2018-09-29T17:57:31.295Z,24.30
2018-09-29T17:59:59.612Z,28.03
2018-09-29T18:02:27.819Z,31.03
2018-09-29T18:04:56.094Z,28.07
2018-09-29T18:07:24.300Z,19.43
2018-09-29T18:09:52.526Z,17.10
2018-09-29T18:12:20.732Z,17.20
2018-09-29T18:14:49.020Z,18.10
2018-09-29T18:17:17.190Z,15.33
2018-09-29T18:19:45.415Z,14.60
2018-09-29T18:22:13.634Z,14.27
2018-09-29T18:24:41.855Z,14.00
2018-09-29T18:27:10.245Z,13.90
2018-09-29T18:29:38.500Z,11.10
2018-09-29T18:32:06.729Z,12.20
2018-09-29T18:34:35.003Z,11.83
2018-09-29T18:37:03.204Z,11.57
2018-09-29T18:39:31.480Z,10.23
2018-09-29T18:41:59.697Z,8.83
2018-09-29T18:44:27.921Z,9.77
2018-09-29T18:46:56.148Z,11.00
2018-09-29T18:49:24.376Z,12.90
2018-09-29T18:51:52.709Z,12.83
2018-09-29T18:54:20.878Z,14.90
2018-09-29T18:56:49.089Z,16.73
2018-09-29T18:59:17.317Z,14.47
2018-09-29T19:01:45.567Z,14.00
2018-09-29T19:04:13.797Z,14.00
2018-09-29T19:06:41.999Z,12.80
2018-09-29T19:09:11.853Z,13.20
2018-09-29T19:11:40.380Z,13.73
2018-09-29T19:14:08.632Z,10.33
2018-09-29T19:16:36.857Z,8.20
2018-09-29T19:19:05.128Z,8.97
2018-09-29T19:21:33.340Z,8.50
2018-09-29T19:24:01.588Z,9.23
2018-09-29T19:26:29.799Z,8.73
2018-09-29T19:28:58.098Z,9.07
2018-09-29T19:31:26.300Z,8.87
2018-09-29T19:33:54.621Z,8.43
2018-09-29T19:36:22.850Z,8.13
2018-09-29T19:38:51.128Z,9.00
2018-09-29T19:41:19.324Z,7.97
2018-09-29T19:43:47.531Z,7.63
2018-09-29T19:46:15.728Z,7.93
2018-09-29T19:48:43.946Z,8.30
2018-09-29T19:51:12.184Z,7.67
2018-09-29T19:53:40.417Z,7.73
2018-09-29T19:56:08.695Z,7.73
2018-09-29T19:58:36.903Z,8.27
2018-09-29T20:01:05.120Z,8.17
2018-09-29T20:03:33.342Z,7.87
2018-09-29T20:06:01.552Z,8.13
2018-09-29T20:08:29.755Z,8.10
2018-09-29T20:10:58.029Z,7.70
2018-09-29T20:13:26.277Z,8.03
2018-09-29T20:15:54.512Z,7.27
2018-09-29T20:18:22.732Z,7.00
2018-09-29T20:20:50.964Z,7.17
2018-09-29T20:23:20.170Z,7.50
2018-09-29T20:25:49.531Z,7.17
2018-09-29T20:28:17.747Z,6.90
2018-09-29T20:30:45.993Z,7.03
2018-09-29T20:33:14.219Z,7.20
2018-09-29T20:35:42.436Z,7.03
2018-09-29T20:38:10.632Z,7.37
2018-09-29T20:40:38.856Z,6.77
2018-09-29T20:43:07.109Z,7.07
2018-09-29T20:45:35.336Z,6.87
2018-09-29T20:48:03.546Z,7.37
2018-09-29T20:50:31.786Z,7.20
2018-09-29T20:53:00.005Z,7.23
2018-09-29T20:55:28.244Z,7.33
2018-09-29T20:57:56.584Z,7.50
2018-09-29T21:00:24.790Z,7.27
2018-09-29T21:02:52.992Z,7.77
2018-09-29T21:05:21.211Z,7.80
2018-09-29T21:07:49.411Z,7.07
2018-09-29T21:10:17.668Z,6.80
2018-09-29T21:12:45.907Z,7.70
2018-09-29T21:15:14.138Z,7.70
2018-09-29T21:17:42.354Z,6.87
2018-09-29T21:20:10.586Z,7.30
2018-09-29T21:22:38.800Z,7.27
2018-09-29T21:25:07.033Z,7.23
2018-09-29T21:27:35.241Z,7.40
2018-09-29T21:30:03.523Z,6.67
2018-09-29T21:32:31.749Z,7.13
2018-09-29T21:34:59.948Z,7.07
2018-09-29T21:37:28.172Z,6.73
2018-09-29T21:39:56.392Z,6.70
2018-09-29T21:42:24.703Z,6.33
2018-09-29T21:44:52.912Z,6.83
2018-09-29T21:47:21.432Z,6.43
2018-09-29T21:49:49.642Z,6.23
2018-09-29T21:52:17.945Z,6.00
2018-09-29T21:54:46.162Z,6.30
2018-09-29T21:57:14.429Z,6.20
2018-09-29T21:59:42.637Z,5.53
2018-09-29T22:02:10.852Z,5.37
2018-09-29T22:04:39.064Z,5.73
2018-09-29T22:07:07.286Z,5.40
2018-09-29T22:09:35.729Z,5.73
2018-09-29T22:12:03.999Z,5.93
2018-09-29T22:14:32.233Z,6.10
2018-09-29T22:17:00.468Z,5.40
2018-09-29T22:19:28.700Z,5.70
2018-09-29T22:21:56.951Z,6.10
2018-09-29T22:24:25.174Z,5.60
2018-09-29T22:26:53.401Z,5.50
2018-09-29T22:29:21.636Z,5.77
2018-09-29T22:31:49.878Z,5.47
2018-09-29T22:34:18.081Z,5.60
2018-09-29T22:36:46.294Z,5.00
2018-09-29T22:39:14.511Z,5.10
2018-09-29T22:41:42.745Z,5.23
2018-09-29T22:44:10.939Z,5.47
2018-09-29T22:46:39.176Z,5.90
2018-09-29T22:49:07.397Z,5.57
2018-09-29T22:51:35.621Z,5.73
2018-09-29T22:54:03.922Z,6.00
2018-09-29T22:56:32.145Z,6.20
2018-09-29T22:59:00.360Z,6.27
2018-09-29T23:01:28.571Z,6.70
2018-09-29T23:03:56.767Z,7.17
2018-09-29T23:06:24.996Z,6.10
2018-09-29T23:08:53.187Z,6.93
2018-09-29T23:11:21.400Z,7.10
2018-09-29T23:13:49.848Z,6.77
2018-09-29T23:16:18.049Z,6.90
2018-09-29T23:18:46.280Z,6.33
2018-09-29T23:21:14.490Z,7.23
2018-09-29T23:23:42.708Z,6.27
2018-09-29T23:26:10.946Z,6.67
2018-09-29T23:28:39.199Z,6.37
2018-09-29T23:31:07.462Z,6.20
2018-09-29T23:33:35.704Z,6.30
2018-09-29T23:36:03.898Z,6.27
2018-09-29T23:38:32.120Z,5.70
2018-09-29T23:41:00.761Z,5.63
2018-09-29T23:43:29.211Z,5.90
2018-09-29T23:45:57.426Z,5.97
2018-09-29T23:48:25.637Z,6.13
2018-09-29T23:50:53.851Z,6.07
2018-09-29T23:53:22.085Z,6.07
2018-09-29T23:55:50.287Z,6.03
2018-09-29T23:58:18.508Z,6.27
